createdAt,value
2022-09-17T00:01:21.947Z,3.30
2022-09-17T00:04:12.723Z,3.37
2022-09-17T00:07:02.018Z,4.23
2022-09-17T00:09:51.234Z,5.30
2022-09-17T00:12:40.470Z,6.63
2022-09-17T00:15:29.171Z,10.97
2022-09-17T00:18:17.498Z,3.27
2022-09-17T00:21:07.715Z,6.17
2022-09-17T00:23:57.741Z,6.43
2022-09-17T00:26:46.338Z,4.97
2022-09-17T00:29:34.681Z,8.30
2022-09-17T00:32:23.589Z,7.63
2022-09-17T00:35:11.757Z,10.23
2022-09-17T00:38:01.467Z,9.23
2022-09-17T00:40:49.986Z,5.13
2022-09-17T00:43:42.096Z,10.20
2022-09-17T00:46:33.990Z,14.17
2022-09-17T00:49:24.881Z,7.47
2022-09-17T00:52:16.407Z,5.03
2022-09-17T00:55:14.059Z,7.00
2022-09-17T00:58:03.930Z,4.70
2022-09-17T01:00:53.033Z,6.30
2022-09-17T01:03:41.156Z,4.13
2022-09-17T01:06:35.776Z,5.93
2022-09-17T01:09:35.304Z,4.47
2022-09-17T01:12:38.089Z,3.67
2022-09-17T01:15:34.467Z,3.87
2022-09-17T01:18:39.458Z,10.50
2022-09-17T01:21:53.269Z,5.13
2022-09-17T01:24:49.383Z,3.90
2022-09-17T01:27:55.885Z,5.73
2022-09-17T01:31:17.604Z,4.23
2022-09-17T01:34:17.494Z,4.63
2022-09-17T01:37:11.491Z,7.20
2022-09-17T01:40:05.749Z,6.77
2022-09-17T01:43:00.862Z,10.77
2022-09-17T01:45:52.325Z,7.50
2022-09-17T01:48:45.253Z,8.43
2022-09-17T01:51:39.991Z,9.70
2022-09-17T01:54:33.168Z,8.50
2022-09-17T01:57:27.422Z,13.37
2022-09-17T02:00:17.682Z,8.37
2022-09-17T02:03:11.372Z,4.40
2022-09-17T02:06:03.273Z,2.80
2022-09-17T02:08:58.508Z,2.30
2022-09-17T02:11:55.964Z,1.90
2022-09-17T02:14:50.810Z,2.37
2022-09-17T02:17:44.096Z,2.40
2022-09-17T02:20:39.572Z,2.10
2022-09-17T02:23:33.084Z,2.00
2022-09-17T02:26:25.024Z,3.43
2022-09-17T02:29:18.688Z,2.73
2022-09-17T02:32:07.450Z,2.30
2022-09-17T02:34:55.711Z,2.27
2022-09-17T02:37:44.743Z,2.60
2022-09-17T02:40:37.238Z,4.30
2022-09-17T02:43:36.223Z,18.00
2022-09-17T02:46:40.514Z,9.43
2022-09-17T02:49:55.528Z,8.70
2022-09-17T02:52:53.281Z,7.90
2022-09-17T02:55:48.412Z,5.60
2022-09-17T02:58:42.868Z,10.37
2022-09-17T03:01:35.612Z,11.63
2022-09-17T03:04:26.613Z,7.10
2022-09-17T03:07:15.401Z,2.17
2022-09-17T03:10:03.370Z,2.40
2022-09-17T03:12:53.361Z,2.20
2022-09-17T03:15:42.932Z,2.10
2022-09-17T03:18:31.195Z,3.10
2022-09-17T03:21:20.139Z,2.50
2022-09-17T03:24:08.575Z,3.50
2022-09-17T03:26:57.275Z,2.20
2022-09-17T03:29:45.379Z,3.33
2022-09-17T03:32:34.987Z,2.70
2022-09-17T03:35:23.434Z,3.20
2022-09-17T03:38:13.018Z,2.80
2022-09-17T03:41:02.468Z,2.50
2022-09-17T03:43:50.696Z,3.70
2022-09-17T03:46:39.161Z,2.40
2022-09-17T03:49:29.011Z,2.47
2022-09-17T03:52:17.568Z,3.23
2022-09-17T03:55:06.241Z,2.50
2022-09-17T03:57:56.169Z,2.30
2022-09-17T04:00:44.571Z,3.13
2022-09-17T04:03:33.833Z,5.27
2022-09-17T04:06:23.346Z,3.40
2022-09-17T04:09:12.031Z,3.17
2022-09-17T04:12:00.020Z,2.73
2022-09-17T04:14:48.439Z,2.33
2022-09-17T04:17:36.489Z,2.10
2022-09-17T04:20:26.178Z,2.27
2022-09-17T04:23:15.828Z,2.60
2022-09-17T04:26:04.611Z,2.70
2022-09-17T04:28:52.630Z,2.77
2022-09-17T04:31:40.661Z,2.60
2022-09-17T04:34:31.927Z,2.87
2022-09-17T04:37:20.106Z,1.93
2022-09-17T04:40:11.793Z,2.87
2022-09-17T04:43:03.067Z,3.03
2022-09-17T04:45:51.788Z,2.60
2022-09-17T04:48:40.019Z,2.77
2022-09-17T04:51:28.043Z,4.37
2022-09-17T04:54:16.010Z,4.17
2022-09-17T04:57:05.863Z,3.07
2022-09-17T04:59:53.928Z,3.43
2022-09-17T05:02:41.907Z,6.43
2022-09-17T05:05:30.491Z,3.10
2022-09-17T05:08:18.450Z,2.40
2022-09-17T05:11:06.824Z,2.30
2022-09-17T05:13:59.440Z,2.77
2022-09-17T05:16:47.896Z,3.93
2022-09-17T05:19:37.172Z,3.10
2022-09-17T05:22:25.339Z,2.33
2022-09-17T05:25:14.415Z,2.47
2022-09-17T05:28:02.950Z,2.60
2022-09-17T05:30:52.753Z,2.60
2022-09-17T05:33:41.099Z,2.87
2022-09-17T05:36:29.098Z,2.70
2022-09-17T05:39:17.575Z,2.97
2022-09-17T05:42:05.830Z,2.87
2022-09-17T05:44:54.039Z,2.47
2022-09-17T05:47:43.703Z,2.70
2022-09-17T05:50:32.252Z,2.57
2022-09-17T05:53:20.278Z,2.43
2022-09-17T05:56:08.522Z,4.80
2022-09-17T05:58:57.264Z,2.87
2022-09-17T06:01:46.600Z,2.77
2022-09-17T06:04:36.188Z,2.40
2022-09-17T06:07:24.174Z,3.40
2022-09-17T06:10:12.438Z,2.83
2022-09-17T06:13:00.979Z,2.30
2022-09-17T06:15:51.971Z,3.23
2022-09-17T06:18:40.184Z,3.20
2022-09-17T06:21:30.454Z,2.13
2022-09-17T06:24:18.827Z,2.57
2022-09-17T06:27:07.084Z,2.50
2022-09-17T06:29:55.280Z,2.47
2022-09-17T06:32:43.930Z,2.20
2022-09-17T06:35:31.984Z,3.90
2022-09-17T06:38:21.701Z,2.87
2022-09-17T06:41:09.949Z,3.27
2022-09-17T06:43:58.869Z,4.27
2022-09-17T06:46:46.910Z,4.57
2022-09-17T06:49:34.986Z,5.77
2022-09-17T06:52:23.422Z,8.17
2022-09-17T06:55:12.998Z,8.73
2022-09-17T06:58:01.346Z,10.07
2022-09-17T07:00:49.401Z,9.97
2022-09-17T07:03:38.155Z,15.13
2022-09-17T07:06:26.402Z,12.53
2022-09-17T07:09:14.585Z,12.97
2022-09-17T07:12:08.411Z,6.00
2022-09-17T07:14:56.715Z,5.73
2022-09-17T07:17:45.514Z,7.83
2022-09-17T07:20:33.561Z,9.03
2022-09-17T07:23:22.075Z,7.07
2022-09-17T07:26:14.476Z,7.90
2022-09-17T07:29:03.921Z,5.93
2022-09-17T07:31:52.345Z,6.47
2022-09-17T07:34:40.460Z,3.40
2022-09-17T07:37:28.807Z,3.30
2022-09-17T07:40:17.109Z,7.33
2022-09-17T07:43:05.761Z,12.57
2022-09-17T07:45:56.129Z,6.43
2022-09-17T07:48:44.453Z,5.07
2022-09-17T07:51:33.387Z,9.60
2022-09-17T07:54:22.160Z,6.87
2022-09-17T07:57:10.472Z,11.60
2022-09-17T07:59:58.826Z,7.53
2022-09-17T08:02:54.358Z,12.30
2022-09-17T08:05:42.689Z,4.77
2022-09-17T08:08:32.088Z,11.63
2022-09-17T08:14:30.276Z,3.37
2022-09-17T08:17:18.658Z,5.60
2022-09-17T08:20:10.875Z,16.00
2022-09-17T08:23:00.676Z,5.40
2022-09-17T08:25:53.919Z,5.83
2022-09-17T08:28:45.914Z,2.10
2022-09-17T08:31:34.096Z,4.00
2022-09-17T08:34:22.684Z,2.20
2022-09-17T08:37:12.256Z,4.50
2022-09-17T08:40:00.201Z,3.50
2022-09-17T08:42:57.345Z,5.50
2022-09-17T08:45:45.850Z,2.40
2022-09-17T08:48:42.350Z,2.97
2022-09-17T08:51:43.657Z,6.70
2022-09-17T08:54:39.257Z,6.17
2022-09-17T08:57:35.170Z,2.30
2022-09-17T09:00:26.397Z,1.90
2022-09-17T09:03:28.369Z,1.87
2022-09-17T09:06:17.777Z,3.23
2022-09-17T09:09:11.275Z,2.17
2022-09-17T09:12:06.194Z,1.47
2022-09-17T09:14:59.656Z,2.33
2022-09-17T09:17:51.149Z,1.60
2022-09-17T09:20:49.659Z,6.13
2022-09-17T09:23:47.034Z,2.67
2022-09-17T09:26:44.924Z,1.93
2022-09-17T09:29:56.899Z,1.30
2022-09-17T09:32:58.504Z,1.40
2022-09-17T09:35:46.799Z,1.43
2022-09-17T09:38:40.427Z,1.77
2022-09-17T09:41:33.526Z,5.67
2022-09-17T09:44:21.629Z,4.67
2022-09-17T09:47:26.926Z,1.60
2022-09-17T09:51:04.788Z,1.70
2022-09-17T09:54:07.635Z,4.03
2022-09-17T09:56:58.721Z,8.67
2022-09-17T09:59:46.851Z,8.00
2022-09-17T10:02:36.438Z,2.50
2022-09-17T10:05:25.137Z,1.60
2022-09-17T10:08:13.859Z,1.47
2022-09-17T10:11:03.919Z,1.73
2022-09-17T10:13:52.360Z,1.40
2022-09-17T10:16:40.472Z,3.90
2022-09-17T10:19:29.958Z,1.67
2022-09-17T10:22:27.289Z,1.40
2022-09-17T10:25:31.288Z,1.67
2022-09-17T10:28:30.993Z,5.60
2022-09-17T10:31:19.112Z,3.43
2022-09-17T10:34:07.310Z,6.37
2022-09-17T10:36:59.120Z,3.03
2022-09-17T10:39:48.945Z,1.43
2022-09-17T10:42:37.206Z,1.90
2022-09-17T10:45:27.062Z,2.90
2022-09-17T10:48:20.763Z,3.30
2022-09-17T10:51:10.946Z,3.50
2022-09-17T10:54:40.791Z,3.47
2022-09-17T10:57:44.990Z,1.33
2022-09-17T11:00:44.152Z,1.30
2022-09-17T11:04:16.625Z,1.10
2022-09-17T11:07:35.642Z,1.10
2022-09-17T11:10:31.409Z,1.33
2022-09-17T11:13:29.149Z,1.27
2022-09-17T11:16:33.329Z,1.27
2022-09-17T11:19:33.215Z,1.20
2022-09-17T11:22:25.030Z,1.10
2022-09-17T11:25:25.383Z,1.00
2022-09-17T11:28:31.466Z,1.10
2022-09-17T11:31:35.554Z,2.13
2022-09-17T11:34:31.157Z,1.50
2022-09-17T11:37:24.801Z,0.93
2022-09-17T11:40:18.901Z,1.17
2022-09-17T11:43:19.599Z,1.10
2022-09-17T11:46:12.251Z,0.70
2022-09-17T11:49:05.783Z,1.00
2022-09-17T11:51:59.290Z,1.10
2022-09-17T11:54:54.028Z,1.13
2022-09-17T11:57:43.519Z,1.33
2022-09-17T12:00:47.131Z,1.00
2022-09-17T12:03:39.880Z,1.00
2022-09-17T12:06:37.423Z,1.60
2022-09-17T12:09:29.540Z,1.30
2022-09-17T12:12:44.947Z,14.53
2022-09-17T12:15:31.871Z,10.13
2022-09-17T12:18:33.739Z,1.70
2022-09-17T12:21:27.461Z,0.93
2022-09-17T12:24:23.227Z,1.00
2022-09-17T12:27:21.192Z,0.80
2022-09-17T12:30:14.237Z,0.90
2022-09-17T12:33:29.127Z,0.90
2022-09-17T12:36:38.333Z,1.20
2022-09-17T12:39:53.308Z,1.20
2022-09-17T12:42:55.725Z,1.00
2022-09-17T12:45:59.663Z,0.87
2022-09-17T12:49:04.881Z,1.27
2022-09-17T12:51:59.451Z,1.47
2022-09-17T12:55:03.121Z,1.30
2022-09-17T12:58:01.707Z,2.00
2022-09-17T13:00:55.808Z,2.30
2022-09-17T13:03:48.692Z,4.33
2022-09-17T13:06:58.390Z,4.00
2022-09-17T13:10:02.542Z,1.67
2022-09-17T13:12:59.562Z,3.40
2022-09-17T13:15:54.813Z,1.90
2022-09-17T13:19:05.656Z,1.20
2022-09-17T13:22:07.353Z,1.10
2022-09-17T13:25:05.598Z,1.17
2022-09-17T13:28:07.563Z,1.40
2022-09-17T13:30:58.403Z,1.20
2022-09-17T13:33:51.900Z,1.10
2022-09-17T13:36:43.385Z,0.90
2022-09-17T13:39:52.898Z,1.27
2022-09-17T13:42:47.172Z,1.50
2022-09-17T13:45:56.118Z,1.07
2022-09-17T13:48:49.579Z,2.00
2022-09-17T13:51:49.086Z,1.10
2022-09-17T13:54:39.818Z,1.20
2022-09-17T13:57:33.469Z,0.90
2022-09-17T14:00:55.067Z,1.30
2022-09-17T14:03:57.361Z,1.50
2022-09-17T14:06:53.423Z,1.80
2022-09-17T14:09:53.357Z,1.60
2022-09-17T14:12:58.337Z,7.63
2022-09-17T14:16:02.847Z,7.50
2022-09-17T14:19:00.220Z,2.00
2022-09-17T14:22:00.603Z,5.07
2022-09-17T14:24:52.518Z,1.47
2022-09-17T14:27:52.533Z,1.60
2022-09-17T14:30:44.255Z,1.53
2022-09-17T14:33:33.076Z,1.30
2022-09-17T14:36:24.038Z,1.97
2022-09-17T14:39:21.607Z,4.00
2022-09-17T14:42:16.618Z,1.80
2022-09-17T14:45:09.236Z,3.07
2022-09-17T14:48:21.627Z,2.40
2022-09-17T14:51:26.622Z,7.03
2022-09-17T14:54:23.479Z,5.73
2022-09-17T14:57:24.955Z,9.37
2022-09-17T15:00:21.844Z,4.63
2022-09-17T15:03:23.223Z,3.13
2022-09-17T15:06:21.452Z,2.13
2022-09-17T15:09:15.924Z,1.50
2022-09-17T15:12:05.898Z,5.27
2022-09-17T15:14:56.370Z,2.43
2022-09-17T15:17:44.735Z,2.03
2022-09-17T15:20:34.631Z,1.57
2022-09-17T15:23:27.207Z,4.27
2022-09-17T15:26:18.710Z,3.47
2022-09-17T15:29:07.146Z,3.23
2022-09-17T15:31:55.622Z,4.30
2022-09-17T15:34:43.957Z,3.37
2022-09-17T15:37:34.372Z,2.57
2022-09-17T15:40:28.492Z,4.23
2022-09-17T15:43:21.918Z,4.70
2022-09-17T15:46:26.595Z,1.93
2022-09-17T15:49:32.560Z,1.47
2022-09-17T15:52:31.711Z,4.10
2022-09-17T15:55:36.853Z,2.30
2022-09-17T15:58:27.457Z,2.60
2022-09-17T16:01:54.347Z,1.30
2022-09-17T16:04:42.485Z,1.53
2022-09-17T16:07:32.919Z,1.40
2022-09-17T16:10:21.276Z,2.37
2022-09-17T16:13:10.943Z,1.70
2022-09-17T16:15:58.982Z,2.17
2022-09-17T16:19:01.861Z,1.80
2022-09-17T16:21:50.825Z,1.57
2022-09-17T16:24:39.045Z,1.90
2022-09-17T16:27:30.238Z,1.63
2022-09-17T16:30:21.593Z,2.90
2022-09-17T16:33:12.453Z,2.40
2022-09-17T16:36:02.127Z,3.10
2022-09-17T16:38:50.148Z,1.87
2022-09-17T16:41:38.174Z,1.93
2022-09-17T16:44:26.283Z,2.20
2022-09-17T16:47:16.286Z,3.53
2022-09-17T16:50:06.047Z,3.60
2022-09-17T16:52:54.820Z,3.37
2022-09-17T16:55:42.865Z,3.07
2022-09-17T16:58:31.148Z,2.53
2022-09-17T17:01:19.568Z,2.10
2022-09-17T17:04:09.242Z,2.90
2022-09-17T17:06:57.618Z,2.50
2022-09-17T17:09:47.041Z,5.60
2022-09-17T17:12:35.076Z,3.97
2022-09-17T17:15:23.727Z,3.00
2022-09-17T17:18:12.101Z,2.60
2022-09-17T17:21:07.330Z,3.40
2022-09-17T17:23:55.579Z,3.30
2022-09-17T17:26:43.717Z,3.63
2022-09-17T17:29:32.127Z,3.43
2022-09-17T17:32:20.035Z,4.43
2022-09-17T17:35:09.230Z,4.00
2022-09-17T17:37:58.945Z,2.63
2022-09-17T17:40:47.414Z,1.70
2022-09-17T17:43:37.097Z,1.93
2022-09-17T17:46:25.634Z,1.50
2022-09-17T17:49:14.035Z,1.70
2022-09-17T17:52:02.394Z,1.80
2022-09-17T17:54:52.064Z,2.13
2022-09-17T17:57:40.202Z,2.13
2022-09-17T18:00:28.113Z,2.10
2022-09-17T18:03:16.011Z,2.30
2022-09-17T18:06:06.915Z,1.73
2022-09-17T18:08:55.511Z,2.07
2022-09-17T18:11:45.179Z,2.10
2022-09-17T18:14:33.397Z,2.17
2022-09-17T18:17:21.594Z,2.33
2022-09-17T18:20:10.615Z,2.13
2022-09-17T18:22:58.538Z,1.50
2022-09-17T18:25:54.736Z,1.70
2022-09-17T18:28:44.664Z,2.60
2022-09-17T18:31:34.308Z,1.60
2022-09-17T18:34:22.467Z,2.00
2022-09-17T18:37:11.074Z,1.70
2022-09-17T18:39:59.678Z,2.03
2022-09-17T18:42:49.588Z,1.80
2022-09-17T18:45:38.979Z,1.60
2022-09-17T18:48:30.403Z,1.83
2022-09-17T18:51:21.908Z,3.30
2022-09-17T18:54:11.053Z,4.23
2022-09-17T18:56:59.213Z,3.10
2022-09-17T18:59:47.216Z,5.17
2022-09-17T19:02:37.451Z,5.70
2022-09-17T19:05:25.703Z,4.43
2022-09-17T19:08:14.554Z,5.67
2022-09-17T19:11:02.925Z,2.87
2022-09-17T19:13:51.009Z,2.90
2022-09-17T19:16:39.139Z,1.43
2022-09-17T19:19:29.029Z,1.40
2022-09-17T19:22:17.876Z,1.20
2022-09-17T19:25:06.666Z,3.13
2022-09-17T19:27:56.128Z,6.33
2022-09-17T19:30:44.458Z,4.47
2022-09-17T19:33:34.896Z,4.67
2022-09-17T19:36:24.616Z,2.33
2022-09-17T19:39:12.875Z,1.80
2022-09-17T19:42:00.940Z,3.23
2022-09-17T19:44:49.103Z,3.10
2022-09-17T19:47:37.351Z,4.40
2022-09-17T19:50:25.247Z,4.30
2022-09-17T19:53:14.874Z,2.93
2022-09-17T19:56:04.642Z,2.30
2022-09-17T19:58:53.337Z,8.90
2022-09-17T20:01:43.931Z,6.07
2022-09-17T20:04:34.184Z,6.57
2022-09-17T20:07:22.424Z,5.77
2022-09-17T20:10:12.469Z,4.30
2022-09-17T20:13:00.439Z,4.37
2022-09-17T20:15:48.706Z,7.73
2022-09-17T20:18:37.461Z,6.80
2022-09-17T20:21:28.335Z,3.37
2022-09-17T20:24:16.270Z,3.53
2022-09-17T20:27:06.007Z,4.03
2022-09-17T20:29:54.178Z,4.43
2022-09-17T20:32:42.626Z,5.50
2022-09-17T20:35:31.022Z,2.93
2022-09-17T20:39:09.534Z,2.00
2022-09-17T20:41:29.091Z,1.50
2022-09-17T20:44:20.296Z,1.60
2022-09-17T20:47:08.214Z,3.27
2022-09-17T20:49:56.748Z,2.10
2022-09-17T20:52:45.027Z,2.37
2022-09-17T20:55:33.181Z,3.27
2022-09-17T20:58:21.218Z,2.30
2022-09-17T21:01:14.846Z,6.37
2022-09-17T21:04:03.627Z,1.90
2022-09-17T21:06:53.551Z,4.70
2022-09-17T21:09:42.154Z,11.97
2022-09-17T21:12:30.119Z,4.83
2022-09-17T21:15:18.099Z,5.03
2022-09-17T21:18:07.541Z,7.23
2022-09-17T21:20:55.715Z,3.37
2022-09-17T21:23:44.763Z,4.80
2022-09-17T21:26:34.371Z,9.33
2022-09-17T21:29:22.554Z,8.57
2022-09-17T21:32:10.928Z,6.33
2022-09-17T21:35:00.275Z,4.63
2022-09-17T21:37:48.731Z,2.50
2022-09-17T21:40:36.937Z,1.70
2022-09-17T21:43:25.640Z,4.93
2022-09-17T21:46:16.075Z,2.17
2022-09-17T21:49:05.240Z,2.80
2022-09-17T21:51:54.744Z,1.80
2022-09-17T21:54:43.077Z,8.57
2022-09-17T21:57:31.453Z,5.87
2022-09-17T22:00:23.245Z,3.60
2022-09-17T22:03:11.764Z,2.33
2022-09-17T22:06:03.503Z,2.17
2022-09-17T22:08:54.583Z,5.30
2022-09-17T22:11:43.155Z,3.20
2022-09-17T22:14:31.255Z,3.93
2022-09-17T22:17:19.638Z,3.53
2022-09-17T22:20:11.087Z,4.37
2022-09-17T22:22:59.879Z,4.50
2022-09-17T22:25:49.545Z,4.30
2022-09-17T22:28:37.711Z,2.67
2022-09-17T22:31:26.795Z,2.03
2022-09-17T22:34:16.864Z,1.53
2022-09-17T22:37:06.306Z,1.50
2022-09-17T22:39:54.589Z,1.53
2022-09-17T22:42:44.242Z,1.60
2022-09-17T22:45:32.241Z,1.60
2022-09-17T22:48:20.287Z,1.50
2022-09-17T22:51:08.563Z,2.10
2022-09-17T22:54:00.097Z,4.60
2022-09-17T22:56:48.995Z,3.30
2022-09-17T22:59:38.311Z,1.37
2022-09-17T23:02:27.157Z,2.00
2022-09-17T23:05:15.586Z,5.30
2022-09-17T23:08:03.654Z,2.40
2022-09-17T23:10:51.665Z,1.80
2022-09-17T23:13:39.706Z,2.10
2022-09-17T23:16:38.640Z,2.07
2022-09-17T23:19:27.412Z,1.50
2022-09-17T23:22:15.543Z,1.80
2022-09-17T23:25:04.805Z,2.77
2022-09-17T23:27:52.855Z,2.80
2022-09-17T23:30:41.074Z,1.50
2022-09-17T23:33:31.160Z,1.67
2022-09-17T23:36:22.309Z,1.60
2022-09-17T23:39:12.415Z,1.43
2022-09-17T23:42:01.223Z,1.80
2022-09-17T23:44:49.233Z,1.40
2022-09-17T23:47:37.265Z,1.60
2022-09-17T23:50:26.876Z,1.20
2022-09-17T23:53:16.104Z,1.23
2022-09-17T23:56:05.872Z,2.87
2022-09-17T23:58:55.475Z,2.80
